Time;durP1;ratioP1;P1;durP2;ratioP2;P2;SDS_P1;SDS_P2;PMS_P1;PMS_P2;Temp;Humidity;BMP_temperature;BMP_pressure;BME280_temperature;BME280_humidity;BME280_pressure;Samples;Min_cycle;Max_cycle;Signal;HPM_P1;HPM_P2
2023/04/10 00:01:34;;;;;;;;;;;7.70;99.90;;;;;;5098079;28;19916;-57
2023/04/10 00:04:01;;;;;;;;;;;7.70;99.90;;;;;;5098203;28;20066;-57
2023/04/10 00:06:27;;;;;;;;;;;7.70;99.90;;;;;;5098131;28;19923;-58
2023/04/10 00:08:53;;;;;;;;;;;7.70;99.90;;;;;;5097890;28;19912;-57
2023/04/10 00:11:19;;;;;;;;;;;7.80;99.90;;;;;;5097912;28;19927;-57
2023/04/10 00:13:44;;;;;;;;;;;7.80;99.90;;;;;;5097977;28;20098;-58
2023/04/10 00:16:10;;;;;;;;;;;7.70;99.90;;;;;;5097927;28;19923;-58
2023/04/10 00:18:36;;;;;;;;;;;7.60;99.90;;;;;;5097985;28;19963;-57
2023/04/10 00:21:02;;;;;;;;;;;7.60;99.90;;;;;;5097891;28;19916;-57
2023/04/10 00:23:30;;;;;;;;;;;7.50;99.90;;;;;;5097519;28;19961;-58
2023/04/10 00:25:56;;;;;;;;;;;7.50;99.90;;;;;;5097902;28;19919;-57
2023/04/10 00:28:22;;;;;;;;;;;7.50;99.90;;;;;;5097736;28;19908;-57
2023/04/10 00:30:47;;;;;;;;;;;7.30;99.90;;;;;;5097669;28;19958;-58
2023/04/10 00:33:13;;;;;;;;;;;7.40;99.90;;;;;;5097691;28;19916;-57
2023/04/10 00:35:39;;;;;;;;;;;7.30;99.90;;;;;;5079489;28;19923;-57
2023/04/10 00:38:05;;;;;;;;;;;7.30;99.90;;;;;;5097495;28;19950;-57
2023/04/10 00:40:30;;;;;;;;;;;7.20;99.90;;;;;;5097569;28;19912;-57
2023/04/10 00:42:56;;;;;;;;;;;7.10;99.90;;;;;;5097578;28;19916;-57
2023/04/10 00:45:22;;;;;;;;;;;7.00;99.90;;;;;;5096628;28;19912;-58
2023/04/10 00:47:48;;;;;;;;;;;7.00;99.90;;;;;;5079543;28;19940;-57
2023/04/10 00:50:14;;;;;;;;;;;7.00;99.90;;;;;;5097422;28;19996;-57
2023/04/10 00:52:40;;;;;;;;;;;6.90;99.90;;;;;;5097473;28;19912;-57
2023/04/10 00:55:06;;;;;;;;;;;6.90;99.90;;;;;;5078955;28;20006;-58
2023/04/10 00:57:32;;;;;;;;;;;6.70;99.90;;;;;;5097296;28;19916;-57
2023/04/10 00:59:59;;;;;;;;;;;6.80;99.90;;;;;;5097010;28;19913;-57
2023/04/10 01:02:25;;;;;;;;;;;6.80;99.90;;;;;;5078992;28;19912;-57
2023/04/10 01:04:51;;;;;;;;;;;6.80;99.90;;;;;;5096959;28;20286;-57
2023/04/10 01:07:20;;;;;;;;;;;6.80;99.90;;;;;;5096829;28;19918;-57
2023/04/10 01:09:52;;;;;;;;;;;6.80;99.90;;;;;;5096953;28;19920;-57
2023/04/10 01:12:35;;;;;;;;;;;6.80;99.90;;;;;;5078688;28;19919;-57
2023/04/10 01:15:05;;;;;;;;;;;6.90;99.90;;;;;;5096782;28;20266;-58
2023/04/10 01:17:37;;;;;;;;;;;6.90;99.90;;;;;;5096922;28;19916;-57
2023/04/10 01:20:11;;;;;;;;;;;6.90;99.90;;;;;;5096646;28;19916;-57
2023/04/10 01:22:43;;;;;;;;;;;6.80;99.90;;;;;;5096588;28;19937;-57
2023/04/10 01:25:27;;;;;;;;;;;6.90;99.90;;;;;;5096674;28;19916;-58
2023/04/10 01:27:53;;;;;;;;;;;6.90;99.90;;;;;;5096565;28;19912;-58
2023/04/10 01:30:20;;;;;;;;;;;7.00;99.90;;;;;;5096561;28;19922;-57
2023/04/10 01:32:47;;;;;;;;;;;7.00;99.90;;;;;;5078497;28;19958;-57
2023/04/10 01:35:14;;;;;;;;;;;7.00;99.90;;;;;;5078187;28;19947;-57
2023/04/10 01:37:42;;;;;;;;;;;7.00;99.90;;;;;;5096405;28;19912;-57
2023/04/10 01:40:10;;;;;;;;;;;6.90;99.90;;;;;;5078189;28;19920;-57
2023/04/10 01:42:42;;;;;;;;;;;6.90;99.90;;;;;;5077937;28;20363;-57
2023/04/10 01:45:11;;;;;;;;;;;6.80;99.90;;;;;;5096362;28;19912;-57
2023/04/10 01:47:37;;;;;;;;;;;6.80;99.90;;;;;;5078022;28;19916;-57
2023/04/10 01:50:04;;;;;;;;;;;6.70;99.90;;;;;;5077840;28;19916;-57
2023/04/10 01:52:31;;;;;;;;;;;6.70;99.90;;;;;;5078040;28;19916;-57
2023/04/10 01:55:16;;;;;;;;;;;6.70;99.90;;;;;;5077699;28;19920;-57
2023/04/10 01:57:47;;;;;;;;;;;6.70;99.90;;;;;;5077011;28;19912;-58
2023/04/10 02:00:15;;;;;;;;;;;6.50;99.90;;;;;;5077715;28;20288;-57
2023/04/10 02:02:42;;;;;;;;;;;6.40;99.90;;;;;;5096095;28;19916;-57
2023/04/10 02:05:09;;;;;;;;;;;6.40;99.90;;;;;;5078202;28;19919;-57
2023/04/10 02:07:53;;;;;;;;;;;6.40;99.90;;;;;;5095951;28;19919;-57
2023/04/10 02:10:49;;;;;;;;;;;6.40;99.90;;;;;;5095528;28;19969;-57
2023/04/10 02:13:18;;;;;;;;;;;6.40;99.90;;;;;;5060971;28;19963;-57
2023/04/10 02:15:45;;;;;;;;;;;6.40;99.90;;;;;;5096050;28;19985;-57
2023/04/10 02:18:14;;;;;;;;;;;6.30;99.90;;;;;;5077443;28;20293;-57
2023/04/10 02:20:40;;;;;;;;;;;6.20;99.90;;;;;;5095663;28;20002;-57
2023/04/10 02:23:06;;;;;;;;;;;6.20;99.90;;;;;;5095572;28;19912;-58
2023/04/10 02:25:32;;;;;;;;;;;6.20;99.90;;;;;;5095491;28;19912;-57
2023/04/10 02:28:02;;;;;;;;;;;6.20;99.90;;;;;;5095527;28;19948;-57
2023/04/10 02:30:31;;;;;;;;;;;6.20;99.90;;;;;;5095690;28;19964;-57
2023/04/10 02:32:57;;;;;;;;;;;6.30;99.90;;;;;;5095423;28;20003;-57
2023/04/10 02:35:23;;;;;;;;;;;6.30;99.90;;;;;;5095454;28;19949;-57
2023/04/10 02:37:49;;;;;;;;;;;6.30;99.90;;;;;;5077224;28;19916;-57
2023/04/10 02:40:16;;;;;;;;;;;6.30;99.90;;;;;;5077079;28;20361;-57
2023/04/10 02:42:52;;;;;;;;;;;6.30;99.90;;;;;;5077083;28;20382;-57
2023/04/10 02:45:18;;;;;;;;;;;6.30;99.90;;;;;;5095223;28;20005;-57
2023/04/10 02:47:44;;;;;;;;;;;6.30;99.90;;;;;;5077054;28;19923;-57
2023/04/10 02:50:10;;;;;;;;;;;6.40;99.90;;;;;;5077102;28;19916;-57
2023/04/10 02:52:39;;;;;;;;;;;6.50;99.90;;;;;;5076941;28;19910;-57
2023/04/10 02:55:05;;;;;;;;;;;6.50;99.90;;;;;;5076790;28;19971;-57
2023/04/10 02:57:35;;;;;;;;;;;6.60;99.90;;;;;;5077020;28;19923;-57
2023/04/10 03:00:03;;;;;;;;;;;6.60;99.90;;;;;;5095057;28;20336;-57
2023/04/10 03:02:35;;;;;;;;;;;6.50;99.90;;;;;;5076768;28;19938;-58
2023/04/10 03:05:12;;;;;;;;;;;6.50;99.90;;;;;;5077550;28;19918;-57
2023/04/10 03:07:38;;;;;;;;;;;6.40;99.90;;;;;;5078883;28;19975;-57
2023/04/10 03:10:05;;;;;;;;;;;6.40;99.90;;;;;;5083367;28;19912;-57
2023/04/10 03:12:30;;;;;;;;;;;6.40;99.90;;;;;;5102069;28;19912;-57
2023/04/10 03:14:56;;;;;;;;;;;6.40;99.90;;;;;;5101597;28;19919;-57
2023/04/10 03:17:22;;;;;;;;;;;6.30;99.90;;;;;;5101721;28;19918;-57
2023/04/10 03:19:48;;;;;;;;;;;6.30;99.90;;;;;;5083483;28;20399;-57
2023/04/10 03:22:13;;;;;;;;;;;6.40;99.90;;;;;;5101412;28;20242;-57
2023/04/10 03:24:40;;;;;;;;;;;6.30;99.90;;;;;;5083451;28;20023;-57
2023/04/10 03:27:05;;;;;;;;;;;6.30;99.90;;;;;;5083403;28;19934;-57
2023/04/10 03:29:32;;;;;;;;;;;6.20;99.90;;;;;;5083140;28;19908;-58
2023/04/10 03:31:59;;;;;;;;;;;6.20;99.90;;;;;;5083437;28;19919;-57
2023/04/10 03:34:25;;;;;;;;;;;6.10;99.90;;;;;;5083291;28;19952;-58
2023/04/10 03:36:51;;;;;;;;;;;6.10;99.90;;;;;;5101307;28;19924;-57
2023/04/10 03:39:17;;;;;;;;;;;6.10;99.90;;;;;;5101569;28;19912;-57
2023/04/10 03:41:43;;;;;;;;;;;6.00;99.90;;;;;;5083483;28;19912;-57
2023/04/10 03:44:09;;;;;;;;;;;6.00;99.90;;;;;;5082971;28;20421;-57
2023/04/10 03:46:34;;;;;;;;;;;6.10;99.90;;;;;;5083289;28;19920;-57
2023/04/10 03:49:00;;;;;;;;;;;6.10;99.90;;;;;;5083042;28;19958;-57
2023/04/10 03:51:30;;;;;;;;;;;6.10;99.90;;;;;;5083137;28;19919;-57
2023/04/10 03:53:56;;;;;;;;;;;6.10;99.90;;;;;;5083038;28;19961;-57
2023/04/10 03:56:22;;;;;;;;;;;6.00;99.90;;;;;;5082929;28;19916;-57
2023/04/10 03:58:48;;;;;;;;;;;5.90;99.90;;;;;;5082955;28;19997;-57
2023/04/10 04:01:13;;;;;;;;;;;5.90;99.90;;;;;;5101352;28;19919;-57
2023/04/10 04:04:02;;;;;;;;;;;5.80;99.90;;;;;;5095259;28;19916;-57
2023/04/10 04:06:47;;;;;;;;;;;5.90;99.90;;;;;;5101099;28;19919;-57
2023/04/10 04:09:19;;;;;;;;;;;6.00;99.90;;;;;;5101148;28;19970;-57
2023/04/10 04:12:04;;;;;;;;;;;6.00;99.90;;;;;;5101112;28;19923;-57
2023/04/10 04:14:32;;;;;;;;;;;6.00;99.90;;;;;;5101133;28;20011;-57
2023/04/10 04:17:17;;;;;;;;;;;6.10;99.90;;;;;;5082828;28;19991;-57
2023/04/10 04:19:56;;;;;;;;;;;6.10;99.90;;;;;;5079610;28;19912;-57
2023/04/10 04:22:45;;;;;;;;;;;6.10;99.90;;;;;;5079570;28;19962;-57
2023/04/10 04:25:29;;;;;;;;;;;6.00;99.90;;;;;;5097843;28;19919;-57
2023/04/10 04:28:14;;;;;;;;;;;6.10;99.90;;;;;;5079756;28;19958;-57
2023/04/10 04:30:59;;;;;;;;;;;6.00;99.90;;;;;;5098280;28;20450;-57
2023/04/10 04:33:47;;;;;;;;;;;6.00;99.90;;;;;;5079322;28;19912;-57
2023/04/10 04:36:36;;;;;;;;;;;6.10;99.90;;;;;;5091698;28;19912;-57
2023/04/10 04:39:22;;;;;;;;;;;6.10;99.90;;;;;;5097665;28;20615;-57
2023/04/10 04:42:03;;;;;;;;;;;6.10;99.90;;;;;;5079341;28;19919;-57
2023/04/10 04:44:44;;;;;;;;;;;6.10;99.90;;;;;;5097396;28;19935;-57
2023/04/10 04:47:41;;;;;;;;;;;6.00;99.90;;;;;;5079161;28;19916;-57
2023/04/10 04:50:20;;;;;;;;;;;6.00;99.90;;;;;;5079124;28;20050;-57
2023/04/10 04:53:07;;;;;;;;;;;6.00;99.90;;;;;;5065335;28;19944;-57
2023/04/10 04:55:53;;;;;;;;;;;6.00;99.90;;;;;;5064972;28;20009;-57
2023/04/10 04:58:46;;;;;;;;;;;6.00;99.90;;;;;;5079078;28;19989;-57
2023/04/10 05:01:32;;;;;;;;;;;6.10;99.90;;;;;;5075373;28;19912;-57
2023/04/10 05:04:24;;;;;;;;;;;6.10;99.90;;;;;;5078704;28;20069;-57
2023/04/10 05:06:57;;;;;;;;;;;6.10;99.90;;;;;;5076793;28;19957;-57
2023/04/10 05:09:58;;;;;;;;;;;6.10;99.90;;;;;;5014152;28;19914;-57
2023/04/10 05:12:47;;;;;;;;;;;6.10;99.90;;;;;;5056642;28;19962;-57
2023/04/10 05:15:31;;;;;;;;;;;6.20;99.90;;;;;;5076668;28;19923;-57
2023/04/10 05:18:28;;;;;;;;;;;6.30;99.90;;;;;;5004399;28;20383;-57
2023/04/10 05:21:09;;;;;;;;;;;6.30;99.90;;;;;;5058405;28;19908;-57
2023/04/10 05:24:01;;;;;;;;;;;6.30;99.90;;;;;;5074662;28;19926;-57
2023/04/10 05:26:38;;;;;;;;;;;6.30;99.90;;;;;;5096954;28;19969;-57
2023/04/10 05:29:23;;;;;;;;;;;6.30;99.90;;;;;;5097073;28;19969;-57
2023/04/10 05:32:05;;;;;;;;;;;6.20;99.90;;;;;;5078576;28;20004;-57
2023/04/10 05:34:42;;;;;;;;;;;6.30;99.90;;;;;;5078926;28;19916;-57
2023/04/10 05:37:32;;;;;;;;;;;6.30;99.90;;;;;;5078647;28;19916;-57
2023/04/10 05:40:16;;;;;;;;;;;6.30;99.90;;;;;;5096363;28;19919;-57
2023/04/10 05:43:00;;;;;;;;;;;6.30;99.90;;;;;;5095581;28;19922;-57
2023/04/10 05:45:52;;;;;;;;;;;6.20;99.90;;;;;;5079486;28;19916;-57
2023/04/10 05:48:27;;;;;;;;;;;6.20;99.90;;;;;;5078166;28;19919;-57
2023/04/10 05:51:12;;;;;;;;;;;6.20;99.90;;;;;;5095789;28;20001;-57
2023/04/10 05:53:55;;;;;;;;;;;6.20;99.90;;;;;;5077203;28;19912;-58
2023/04/10 05:56:50;;;;;;;;;;;6.20;99.90;;;;;;5023145;28;19913;-57
2023/04/10 05:59:40;;;;;;;;;;;6.30;99.90;;;;;;5076804;28;20387;-57
2023/04/10 06:02:39;;;;;;;;;;;6.30;99.90;;;;;;5095603;28;19912;-57
2023/04/10 06:05:07;;;;;;;;;;;6.40;99.90;;;;;;5077863;28;19912;-58
2023/04/10 06:07:35;;;;;;;;;;;6.30;99.90;;;;;;5077343;28;19944;-57
2023/04/10 06:10:01;;;;;;;;;;;6.20;99.90;;;;;;5095621;28;19935;-57
2023/04/10 06:12:32;;;;;;;;;;;6.40;99.90;;;;;;5077195;28;19919;-57
2023/04/10 06:14:59;;;;;;;;;;;6.40;99.90;;;;;;5077309;28;19923;-58
2023/04/10 06:17:30;;;;;;;;;;;6.30;99.90;;;;;;5077227;28;20426;-57
2023/04/10 06:20:03;;;;;;;;;;;6.40;99.90;;;;;;5077036;28;19920;-58
2023/04/10 06:22:29;;;;;;;;;;;6.50;99.90;;;;;;5095281;28;20281;-58
2023/04/10 06:39:23;;;;;;;;;;;6.50;99.90;;;;;;5087845;28;19920;-58
2023/04/10 06:41:49;;;;;;;;;;;6.60;99.90;;;;;;5095208;28;19916;-57
2023/04/10 06:44:35;;;;;;;;;;;6.60;99.90;;;;;;5095196;28;19912;-57
2023/04/10 06:47:01;;;;;;;;;;;6.60;99.90;;;;;;5095724;28;19960;-58
2023/04/10 06:49:27;;;;;;;;;;;6.60;99.90;;;;;;5095484;28;19915;-57
2023/04/10 06:51:53;;;;;;;;;;;6.60;99.90;;;;;;5095887;28;19919;-57
2023/04/10 06:54:19;;;;;;;;;;;6.60;99.90;;;;;;5095324;28;19942;-57
2023/04/10 06:56:46;;;;;;;;;;;6.60;99.90;;;;;;5095356;28;19916;-57
2023/04/10 06:59:12;;;;;;;;;;;6.70;99.90;;;;;;5095752;28;19916;-57
2023/04/10 07:01:40;;;;;;;;;;;6.80;99.90;;;;;;5094901;28;19962;-57
2023/04/10 07:04:08;;;;;;;;;;;6.80;99.90;;;;;;5094642;28;19912;-57
2023/04/10 07:06:34;;;;;;;;;;;6.90;99.90;;;;;;5094487;28;20394;-58
2023/04/10 07:09:00;;;;;;;;;;;6.90;99.90;;;;;;5094427;28;19916;-58
2023/04/10 07:11:26;;;;;;;;;;;6.90;99.90;;;;;;5094534;28;20211;-58
2023/04/10 07:13:56;;;;;;;;;;;7.00;99.90;;;;;;5094972;28;20392;-58
2023/04/10 07:16:22;;;;;;;;;;;7.00;99.90;;;;;;5093716;28;19919;-58
2023/04/10 07:18:48;;;;;;;;;;;7.10;99.90;;;;;;5094296;28;19912;-58
2023/04/10 07:21:14;;;;;;;;;;;7.10;99.90;;;;;;5094733;28;19986;-58
2023/04/10 07:23:40;;;;;;;;;;;7.10;99.90;;;;;;5093495;28;20365;-58
2023/04/10 07:26:06;;;;;;;;;;;7.20;99.90;;;;;;5093552;28;19922;-58
2023/04/10 07:28:32;;;;;;;;;;;7.20;99.90;;;;;;5093863;28;19961;-58
2023/04/10 07:30:58;;;;;;;;;;;7.30;99.90;;;;;;5093921;28;20274;-58
2023/04/10 07:33:23;;;;;;;;;;;7.30;99.90;;;;;;5094459;28;19919;-58
2023/04/10 07:35:50;;;;;;;;;;;7.30;99.90;;;;;;5094180;28;20297;-58
2023/04/10 07:38:17;;;;;;;;;;;7.30;99.90;;;;;;5091949;28;19939;-58
2023/04/10 07:40:42;;;;;;;;;;;7.30;99.90;;;;;;5093364;28;19930;-58
2023/04/10 07:43:08;;;;;;;;;;;7.30;99.90;;;;;;5093435;28;19924;-58
2023/04/10 07:45:34;;;;;;;;;;;7.20;99.90;;;;;;5093517;28;19919;-58
2023/04/10 07:48:01;;;;;;;;;;;7.20;99.90;;;;;;5093696;28;20412;-58
2023/04/10 07:50:27;;;;;;;;;;;7.20;99.90;;;;;;5094343;28;19908;-58
2023/04/10 07:52:52;;;;;;;;;;;7.20;99.90;;;;;;5093880;28;19916;-58
2023/04/10 07:55:18;;;;;;;;;;;7.30;99.90;;;;;;5096203;28;20005;-58
2023/04/10 07:57:44;;;;;;;;;;;7.30;99.90;;;;;;5097537;28;19916;-58
2023/04/10 08:00:10;;;;;;;;;;;7.30;99.90;;;;;;5095669;28;19916;-58
2023/04/10 08:02:40;;;;;;;;;;;7.30;99.90;;;;;;5095401;28;20265;-58
2023/04/10 08:05:06;;;;;;;;;;;7.40;99.90;;;;;;5096811;28;20494;-58
2023/04/10 08:07:32;;;;;;;;;;;7.40;99.90;;;;;;5096361;28;20007;-58
2023/04/10 08:09:57;;;;;;;;;;;7.50;99.90;;;;;;5096592;28;19952;-58
2023/04/10 08:12:23;;;;;;;;;;;7.60;99.90;;;;;;5096497;28;19942;-58
2023/04/10 08:14:50;;;;;;;;;;;7.40;99.90;;;;;;5096899;28;19916;-58
2023/04/10 08:17:16;;;;;;;;;;;7.40;99.90;;;;;;5097094;28;19920;-58
2023/04/10 08:19:42;;;;;;;;;;;7.40;99.90;;;;;;5096569;28;19933;-58
2023/04/10 08:22:08;;;;;;;;;;;7.40;99.90;;;;;;5097337;28;19912;-58
2023/04/10 08:24:34;;;;;;;;;;;7.40;99.90;;;;;;5097640;28;19983;-58
2023/04/10 08:27:00;;;;;;;;;;;7.50;99.90;;;;;;5097473;28;19971;-58
2023/04/10 08:29:25;;;;;;;;;;;7.60;99.90;;;;;;5097369;28;20250;-58
2023/04/10 08:31:51;;;;;;;;;;;7.60;99.90;;;;;;5097648;28;19916;-58
2023/04/10 08:34:17;;;;;;;;;;;7.60;99.90;;;;;;5097223;28;20022;-58
2023/04/10 08:36:43;;;;;;;;;;;7.60;99.90;;;;;;5097021;28;19923;-57
2023/04/10 08:39:08;;;;;;;;;;;7.70;99.90;;;;;;5096296;28;19993;-58
2023/04/10 08:41:34;;;;;;;;;;;7.70;99.90;;;;;;5098086;28;20004;-58
2023/04/10 08:44:00;;;;;;;;;;;7.80;99.90;;;;;;5097390;28;19923;-58
2023/04/10 08:46:28;;;;;;;;;;;7.90;99.90;;;;;;5098088;28;19912;-58
2023/04/10 08:48:56;;;;;;;;;;;8.00;99.90;;;;;;5097271;28;19944;-57
2023/04/10 08:51:25;;;;;;;;;;;8.10;99.90;;;;;;5097258;28;19964;-57
2023/04/10 08:53:52;;;;;;;;;;;8.20;99.90;;;;;;5097640;28;19959;-58
2023/04/10 08:56:19;;;;;;;;;;;8.30;99.90;;;;;;5097696;28;19923;-58
2023/04/10 08:58:45;;;;;;;;;;;8.30;99.90;;;;;;5097479;28;19961;-57
2023/04/10 09:01:11;;;;;;;;;;;8.30;99.90;;;;;;5097834;28;19912;-57
2023/04/10 09:03:37;;;;;;;;;;;8.40;99.90;;;;;;5097250;28;19935;-57
2023/04/10 09:06:03;;;;;;;;;;;8.50;99.90;;;;;;5095950;28;19912;-58
2023/04/10 09:08:30;;;;;;;;;;;8.60;99.90;;;;;;5096796;28;19995;-58
2023/04/10 09:10:56;;;;;;;;;;;8.60;99.90;;;;;;5095750;28;19970;-57
2023/04/10 09:13:34;;;;;;;;;;;8.80;99.90;;;;;;5096501;28;19916;-57
2023/04/10 09:16:00;;;;;;;;;;;8.70;99.90;;;;;;5096621;28;19973;-58
2023/04/10 09:18:46;;;;;;;;;;;8.80;99.90;;;;;;5096666;28;19919;-57
2023/04/10 09:21:14;;;;;;;;;;;8.80;99.90;;;;;;5096548;28;19991;-57
2023/04/10 09:23:41;;;;;;;;;;;8.90;99.90;;;;;;5096553;28;19920;-57
2023/04/10 09:26:23;;;;;;;;;;;8.70;99.90;;;;;;5095996;28;20008;-57
2023/04/10 09:28:55;;;;;;;;;;;8.90;99.90;;;;;;5093779;28;20365;-58
2023/04/10 09:31:29;;;;;;;;;;;8.90;99.90;;;;;;5096276;28;19949;-58
2023/04/10 09:34:10;;;;;;;;;;;9.00;99.90;;;;;;5096205;28;19916;-58
2023/04/10 09:36:40;;;;;;;;;;;9.00;99.90;;;;;;5096194;28;20277;-57
2023/04/10 09:39:06;;;;;;;;;;;9.00;99.90;;;;;;5095991;28;19937;-58
2023/04/10 09:41:32;;;;;;;;;;;9.10;99.90;;;;;;5095959;28;19917;-57
2023/04/10 09:44:06;;;;;;;;;;;9.10;99.90;;;;;;5095354;28;19916;-57
2023/04/10 09:46:32;;;;;;;;;;;9.10;99.90;;;;;;5095130;28;20309;-58
2023/04/10 09:49:01;;;;;;;;;;;9.20;99.90;;;;;;5095626;28;19912;-58
2023/04/10 09:51:46;;;;;;;;;;;9.20;99.90;;;;;;5095804;28;19912;-57
2023/04/10 09:54:12;;;;;;;;;;;9.30;99.90;;;;;;5093944;28;19924;-58
2023/04/10 09:56:39;;;;;;;;;;;9.40;99.90;;;;;;5096093;28;20316;-58
2023/04/10 09:59:05;;;;;;;;;;;9.50;99.90;;;;;;5095921;28;19916;-58
2023/04/10 10:01:33;;;;;;;;;;;9.60;99.90;;;;;;5095062;28;19916;-58
2023/04/10 10:04:00;;;;;;;;;;;9.70;99.90;;;;;;5095875;28;19916;-58
2023/04/10 10:06:26;;;;;;;;;;;9.80;99.90;;;;;;5095239;28;20280;-57
2023/04/10 10:08:52;;;;;;;;;;;9.90;99.90;;;;;;5094875;28;19952;-57
2023/04/10 10:11:21;;;;;;;;;;;9.70;99.90;;;;;;5093518;28;19916;-58
2023/04/10 10:20:43;;;;;;;;;;;9.80;99.90;;;;;;5094528;28;19955;-58
2023/04/10 10:23:09;;;;;;;;;;;9.90;99.90;;;;;;5095123;28;20049;-58
2023/04/10 10:25:35;;;;;;;;;;;9.70;99.90;;;;;;5095440;28;20312;-58
2023/04/10 10:28:02;;;;;;;;;;;9.80;99.90;;;;;;5095026;28;20041;-58
2023/04/10 10:30:30;;;;;;;;;;;9.90;99.90;;;;;;5094939;28;20369;-58
2023/04/10 10:33:00;;;;;;;;;;;9.80;99.90;;;;;;5094231;28;19916;-58
2023/04/10 10:35:26;;;;;;;;;;;9.80;99.90;;;;;;5094871;28;20395;-58
2023/04/10 10:37:52;;;;;;;;;;;9.80;99.90;;;;;;5095133;28;19966;-58
2023/04/10 10:40:31;;;;;;;;;;;9.80;99.90;;;;;;5094857;28;20344;-58
2023/04/10 10:43:19;;;;;;;;;;;9.60;99.90;;;;;;5094728;28;19945;-58
2023/04/10 10:45:54;;;;;;;;;;;9.50;99.90;;;;;;5094800;28;20278;-59
2023/04/10 10:48:20;;;;;;;;;;;9.50;99.90;;;;;;5094550;28;20376;-58
2023/04/10 10:50:51;;;;;;;;;;;9.50;99.90;;;;;;5094798;28;19954;-59
2023/04/10 10:53:37;;;;;;;;;;;9.30;99.90;;;;;;5094157;28;19961;-58
2023/04/10 10:56:18;;;;;;;;;;;9.30;99.90;;;;;;5094780;28;19920;-58
2023/04/10 10:58:56;;;;;;;;;;;9.40;99.90;;;;;;5094833;28;20361;-58
2023/04/10 11:01:22;;;;;;;;;;;9.40;99.90;;;;;;5094944;28;19920;-58
2023/04/10 11:03:48;;;;;;;;;;;9.40;99.90;;;;;;5094682;28;19966;-58
2023/04/10 11:06:18;;;;;;;;;;;9.40;99.90;;;;;;5094582;28;19908;-58
2023/04/10 11:08:46;;;;;;;;;;;9.40;99.90;;;;;;5094854;28;19959;-59
2023/04/10 11:11:14;;;;;;;;;;;9.40;99.90;;;;;;5094820;28;19958;-58
2023/04/10 11:13:41;;;;;;;;;;;9.30;99.90;;;;;;5094751;28;20415;-58
2023/04/10 11:16:11;;;;;;;;;;;9.20;99.90;;;;;;5094657;28;19973;-58
2023/04/10 11:18:49;;;;;;;;;;;9.30;99.90;;;;;;5094506;28;19947;-58
2023/04/10 11:21:18;;;;;;;;;;;9.40;99.90;;;;;;5094594;28;19962;-58
2023/04/10 11:23:53;;;;;;;;;;;9.40;99.90;;;;;;5092778;28;19917;-59
2023/04/10 11:26:38;;;;;;;;;;;9.30;99.90;;;;;;5094844;28;19912;-59
2023/04/10 11:29:32;;;;;;;;;;;9.40;99.90;;;;;;5096470;28;20031;-58
2023/04/10 11:31:59;;;;;;;;;;;9.20;99.90;;;;;;5095235;28;20346;-59
2023/04/10 11:34:34;;;;;;;;;;;9.30;99.90;;;;;;5096287;28;20003;-58
2023/04/10 11:37:03;;;;;;;;;;;9.50;99.90;;;;;;5098943;28;19916;-58
2023/04/10 11:39:29;;;;;;;;;;;9.40;99.90;;;;;;5095963;28;19912;-59
2023/04/10 11:41:56;;;;;;;;;;;9.40;99.90;;;;;;5098769;28;19958;-58
2023/04/10 11:44:30;;;;;;;;;;;9.50;99.90;;;;;;5098620;28;19978;-59
2023/04/10 11:46:56;;;;;;;;;;;9.40;99.90;;;;;;5096506;28;20373;-58
2023/04/10 11:49:33;;;;;;;;;;;9.40;99.90;;;;;;5098545;28;19919;-58
2023/04/10 11:51:59;;;;;;;;;;;9.50;99.90;;;;;;5096926;28;19955;-59
2023/04/10 11:54:26;;;;;;;;;;;9.60;99.90;;;;;;5098011;28;19928;-59
2023/04/10 11:57:02;;;;;;;;;;;9.50;99.90;;;;;;5098062;28;19927;-58
2023/04/10 11:59:29;;;;;;;;;;;9.50;99.90;;;;;;5096926;28;19912;-59
2023/04/10 12:02:04;;;;;;;;;;;9.50;99.90;;;;;;5097762;28;19927;-59
2023/04/10 12:04:31;;;;;;;;;;;9.70;99.90;;;;;;5096983;28;19924;-59
2023/04/10 12:06:57;;;;;;;;;;;9.80;99.90;;;;;;5097498;28;19912;-59
2023/04/10 12:09:23;;;;;;;;;;;9.50;99.90;;;;;;5096785;28;19962;-59
2023/04/10 12:11:58;;;;;;;;;;;9.40;99.90;;;;;;5096380;28;19920;-59
2023/04/10 12:14:43;;;;;;;;;;;9.60;99.90;;;;;;5097007;28;19969;-59
2023/04/10 12:17:18;;;;;;;;;;;9.50;99.90;;;;;;5078500;28;19912;-59
2023/04/10 12:19:44;;;;;;;;;;;9.50;99.90;;;;;;5097867;28;20318;-58
2023/04/10 12:22:10;;;;;;;;;;;9.60;99.90;;;;;;5097544;28;19924;-58
2023/04/10 12:24:42;;;;;;;;;;;9.50;99.90;;;;;;5097511;28;20313;-58
2023/04/10 12:27:17;;;;;;;;;;;9.50;99.90;;;;;;5097679;28;20430;-59
2023/04/10 12:29:43;;;;;;;;;;;9.50;99.90;;;;;;5097341;28;19916;-59
2023/04/10 12:32:09;;;;;;;;;;;9.70;99.90;;;;;;5095803;28;19945;-58
2023/04/10 12:34:35;;;;;;;;;;;9.50;99.90;;;;;;5097130;28;20371;-59
2023/04/10 12:37:01;;;;;;;;;;;9.80;99.90;;;;;;5097407;28;19954;-59
2023/04/10 12:39:28;;;;;;;;;;;9.90;99.90;;;;;;5097124;28;19916;-58
2023/04/10 12:42:09;;;;;;;;;;;10.00;99.90;;;;;;5096193;28;19912;-59
2023/04/10 12:44:48;;;;;;;;;;;10.10;99.90;;;;;;5076679;28;19921;-59
2023/04/10 12:47:14;;;;;;;;;;;10.20;99.90;;;;;;5077099;28;19923;-59
2023/04/10 12:49:39;;;;;;;;;;;10.20;99.90;;;;;;5076776;28;19916;-58
2023/04/10 12:52:05;;;;;;;;;;;10.30;99.90;;;;;;5076866;28;20025;-59
2023/04/10 12:54:35;;;;;;;;;;;10.10;99.90;;;;;;5076836;28;19970;-59
2023/04/10 12:57:02;;;;;;;;;;;10.10;99.90;;;;;;5076828;28;19918;-59
2023/04/10 12:59:28;;;;;;;;;;;10.10;99.90;;;;;;5076699;28;19919;-59
2023/04/10 13:01:54;;;;;;;;;;;10.20;99.90;;;;;;5076841;28;19909;-59
2023/04/10 13:04:20;;;;;;;;;;;10.10;99.90;;;;;;5076585;28;20370;-59
2023/04/10 13:06:47;;;;;;;;;;;10.20;99.90;;;;;;5094253;28;20283;-58
2023/04/10 13:09:13;;;;;;;;;;;10.20;99.90;;;;;;5096292;28;19938;-58
2023/04/10 13:11:39;;;;;;;;;;;10.30;99.90;;;;;;5096668;28;19916;-58
2023/04/10 13:14:05;;;;;;;;;;;10.40;99.90;;;;;;5090154;28;20409;-58
2023/04/10 13:16:31;;;;;;;;;;;10.50;99.90;;;;;;5084610;28;19943;-58
2023/04/10 13:18:57;;;;;;;;;;;10.50;99.90;;;;;;5076276;28;19916;-58
2023/04/10 13:21:24;;;;;;;;;;;10.60;99.90;;;;;;5075940;28;19913;-58
2023/04/10 13:23:51;;;;;;;;;;;10.70;99.90;;;;;;5094831;28;20293;-58
2023/04/10 13:26:17;;;;;;;;;;;10.50;99.90;;;;;;5096268;28;19912;-58
2023/04/10 13:28:43;;;;;;;;;;;10.70;99.90;;;;;;5096686;28;20262;-58
2023/04/10 13:31:08;;;;;;;;;;;10.90;99.90;;;;;;5096847;28;19915;-58
2023/04/10 13:33:34;;;;;;;;;;;11.10;99.90;;;;;;5096389;28;20007;-58
2023/04/10 13:36:00;;;;;;;;;;;11.20;99.90;;;;;;5096493;28;20415;-59
2023/04/10 13:38:26;;;;;;;;;;;11.30;99.90;;;;;;5096427;28;19912;-58
2023/04/10 13:40:52;;;;;;;;;;;11.40;99.90;;;;;;5096037;28;19945;-58
2023/04/10 13:43:18;;;;;;;;;;;11.40;99.90;;;;;;5096315;28;19919;-58
2023/04/10 13:45:44;;;;;;;;;;;11.30;99.90;;;;;;5096378;28;20308;-58
2023/04/10 13:48:09;;;;;;;;;;;11.20;99.90;;;;;;5095908;28;19916;-58
2023/04/10 13:50:35;;;;;;;;;;;11.20;99.90;;;;;;5078264;28;19919;-58
2023/04/10 13:53:01;;;;;;;;;;;11.20;99.90;;;;;;5096112;28;20365;-58
2023/04/10 13:55:27;;;;;;;;;;;11.20;99.90;;;;;;5095728;28;20400;-58
2023/04/10 13:57:52;;;;;;;;;;;11.30;99.90;;;;;;5096093;28;20264;-58
2023/04/10 14:00:18;;;;;;;;;;;11.30;99.90;;;;;;5096054;28;19913;-58
2023/04/10 14:02:44;;;;;;;;;;;11.20;99.90;;;;;;5095804;28;19912;-58
2023/04/10 14:05:10;;;;;;;;;;;11.50;99.90;;;;;;5095741;28;19966;-58
2023/04/10 14:07:36;;;;;;;;;;;11.70;99.90;;;;;;5095757;28;19916;-58
2023/04/10 14:10:02;;;;;;;;;;;11.90;99.90;;;;;;5095477;28;20359;-58
2023/04/10 14:12:28;;;;;;;;;;;12.00;99.90;;;;;;5095736;28;19912;-58
2023/04/10 14:14:55;;;;;;;;;;;12.10;99.90;;;;;;5095843;28;19919;-58
2023/04/10 14:17:21;;;;;;;;;;;12.20;99.90;;;;;;5095555;28;19958;-58
2023/04/10 14:19:50;;;;;;;;;;;12.30;99.90;;;;;;5095580;28;19918;-58
2023/04/10 14:22:16;;;;;;;;;;;12.30;99.90;;;;;;5095674;28;20053;-58
2023/04/10 14:24:42;;;;;;;;;;;12.30;99.90;;;;;;5095356;28;19946;-58
2023/04/10 14:27:08;;;;;;;;;;;12.30;99.90;;;;;;5095318;28;19916;-58
2023/04/10 14:29:34;;;;;;;;;;;12.40;99.90;;;;;;5095473;28;19916;-58
2023/04/10 14:31:59;;;;;;;;;;;12.30;99.90;;;;;;5095473;28;19919;-59
2023/04/10 14:34:25;;;;;;;;;;;12.40;99.90;;;;;;5095469;28;19916;-58
2023/04/10 14:36:54;;;;;;;;;;;12.40;99.90;;;;;;5095435;28;19912;-59
2023/04/10 14:39:23;;;;;;;;;;;12.50;99.90;;;;;;5095279;28;20349;-58
2023/04/10 14:41:49;;;;;;;;;;;12.40;99.90;;;;;;5095325;28;19919;-58
2023/04/10 14:44:16;;;;;;;;;;;12.40;99.90;;;;;;5095192;28;19916;-58
2023/04/10 14:46:41;;;;;;;;;;;12.50;99.90;;;;;;5095116;28;20383;-58
2023/04/10 14:49:07;;;;;;;;;;;12.50;99.90;;;;;;5095329;28;20064;-58
2023/04/10 14:51:33;;;;;;;;;;;12.50;99.90;;;;;;5095124;28;20011;-58
2023/04/10 14:53:59;;;;;;;;;;;12.50;99.90;;;;;;5095002;28;20353;-59
2023/04/10 14:56:25;;;;;;;;;;;12.60;99.90;;;;;;5095182;28;20312;-58
2023/04/10 14:58:50;;;;;;;;;;;12.70;99.90;;;;;;5095027;28;19916;-58
2023/04/10 15:01:16;;;;;;;;;;;12.70;99.90;;;;;;5094878;28;19912;-58
2023/04/10 15:03:45;;;;;;;;;;;12.80;99.90;;;;;;5094556;28;19923;-58
2023/04/10 15:06:11;;;;;;;;;;;12.80;99.90;;;;;;5094662;28;19912;-58
2023/04/10 15:08:37;;;;;;;;;;;12.90;99.90;;;;;;5094769;28;19995;-58